createdAt,value
2019-01-20T00:00:39.367Z,54.30
2019-01-20T00:03:07.639Z,60.93
2019-01-20T00:05:36.880Z,58.13
2019-01-20T00:08:05.418Z,56.23
2019-01-20T00:10:34.153Z,53.60
2019-01-20T00:13:02.327Z,53.80
2019-01-20T00:15:32.265Z,57.90
2019-01-20T00:18:00.684Z,52.83
2019-01-20T00:20:29.319Z,57.23
2019-01-20T00:22:57.458Z,54.87
2019-01-20T00:25:25.633Z,50.07
2019-01-20T00:27:53.884Z,59.70
2019-01-20T00:30:22.419Z,53.90
2019-01-20T00:32:50.751Z,48.53
2019-01-20T00:35:18.964Z,56.07
2019-01-20T00:37:47.370Z,51.93
2019-01-20T00:40:15.766Z,49.50
2019-01-20T00:42:44.872Z,47.87
2019-01-20T00:45:15.184Z,63.07
2019-01-20T00:47:43.310Z,51.20
2019-01-20T00:50:13.369Z,51.97
2019-01-20T00:52:41.955Z,52.37
2019-01-20T00:55:13.898Z,51.30
2019-01-20T00:57:43.058Z,57.87
2019-01-20T01:00:19.747Z,56.37
2019-01-20T01:02:47.962Z,54.50
2019-01-20T01:05:18.434Z,61.47
2019-01-20T01:07:46.844Z,56.43
2019-01-20T01:10:15.491Z,59.43
2019-01-20T01:12:44.002Z,51.03
2019-01-20T01:15:12.661Z,55.03
2019-01-20T01:17:40.980Z,55.83
2019-01-20T01:20:11.832Z,49.67
2019-01-20T01:22:40.182Z,54.77
2019-01-20T01:25:10.706Z,54.90
2019-01-20T01:27:38.883Z,58.37
2019-01-20T01:30:12.790Z,57.77
2019-01-20T01:32:40.926Z,57.57
2019-01-20T01:35:09.818Z,62.93
2019-01-20T01:37:38.254Z,59.10
2019-01-20T01:40:08.527Z,57.77
2019-01-20T01:42:36.711Z,59.40
2019-01-20T01:45:09.182Z,54.63
2019-01-20T01:47:37.295Z,50.17
2019-01-20T01:50:06.492Z,59.70
2019-01-20T01:52:34.926Z,62.27
2019-01-20T01:55:03.938Z,62.40
2019-01-20T01:57:32.072Z,54.70
2019-01-20T02:00:01.608Z,60.73
2019-01-20T02:02:30.399Z,58.43
2019-01-20T02:04:58.618Z,58.17
2019-01-20T02:07:26.735Z,63.00
2019-01-20T02:09:54.972Z,60.17
2019-01-20T02:12:24.926Z,63.70
2019-01-20T02:14:53.202Z,55.30
2019-01-20T02:17:21.635Z,58.40
2019-01-20T02:19:49.985Z,62.83
2019-01-20T02:22:18.094Z,57.77
2019-01-20T02:24:46.226Z,58.53
2019-01-20T02:27:14.384Z,64.63
2019-01-20T02:29:42.508Z,63.30
2019-01-20T02:32:10.765Z,61.77
2019-01-20T02:34:38.838Z,63.37
2019-01-20T02:37:08.210Z,61.97
2019-01-20T02:39:36.386Z,61.23
2019-01-20T02:42:04.861Z,60.67
2019-01-20T02:44:33.342Z,58.77
2019-01-20T02:47:01.785Z,60.07
2019-01-20T02:49:30.002Z,62.33
2019-01-20T02:51:58.275Z,60.80
2019-01-20T02:54:26.392Z,58.90
2019-01-20T02:56:54.730Z,63.57
2019-01-20T02:59:22.914Z,56.87
2019-01-20T03:01:51.441Z,62.37
2019-01-20T03:04:19.506Z,61.70
2019-01-20T03:06:47.805Z,66.10
2019-01-20T03:09:16.070Z,62.03
2019-01-20T03:11:44.119Z,58.63
2019-01-20T03:14:12.173Z,62.73
2019-01-20T03:16:40.260Z,62.73
2019-01-20T03:19:08.626Z,61.53
2019-01-20T03:21:36.832Z,67.83
2019-01-20T03:24:05.042Z,61.10
2019-01-20T03:26:33.735Z,61.10
2019-01-20T03:29:01.863Z,61.27
2019-01-20T03:31:30.257Z,65.27
2019-01-20T03:33:58.366Z,64.33
2019-01-20T03:36:26.510Z,63.43
2019-01-20T03:38:54.645Z,63.73
2019-01-20T03:41:22.851Z,65.17
2019-01-20T03:43:51.127Z,64.60
2019-01-20T03:46:19.474Z,68.47
2019-01-20T03:48:47.558Z,65.53
2019-01-20T03:51:15.925Z,63.87
2019-01-20T03:53:44.055Z,64.20
2019-01-20T03:56:12.143Z,64.17
2019-01-20T03:58:40.235Z,66.00
2019-01-20T04:01:08.544Z,70.50
2019-01-20T04:03:36.690Z,62.77
2019-01-20T04:06:05.252Z,61.20
2019-01-20T04:08:33.909Z,68.70
2019-01-20T04:11:02.407Z,63.97
2019-01-20T04:13:30.610Z,61.03
2019-01-20T04:15:58.679Z,61.87
2019-01-20T04:18:27.195Z,65.33
2019-01-20T04:20:55.405Z,61.70
2019-01-20T04:23:23.546Z,64.10
2019-01-20T04:25:51.679Z,64.60
2019-01-20T04:28:20.169Z,69.47
2019-01-20T04:30:48.855Z,72.40
2019-01-20T04:33:17.024Z,64.30
2019-01-20T04:35:45.232Z,68.93
2019-01-20T04:38:13.408Z,74.67
2019-01-20T04:40:41.951Z,65.67
2019-01-20T04:43:10.067Z,67.83
2019-01-20T04:45:39.223Z,71.13
2019-01-20T04:48:07.819Z,71.37
2019-01-20T04:50:36.428Z,69.63
2019-01-20T04:53:04.487Z,76.13
2019-01-20T04:55:34.562Z,66.40
2019-01-20T04:58:04.101Z,72.97
2019-01-20T05:00:32.402Z,71.10
2019-01-20T05:03:00.740Z,70.60
2019-01-20T05:05:28.954Z,75.90
2019-01-20T05:07:57.138Z,68.87
2019-01-20T05:10:25.377Z,73.37
2019-01-20T05:12:53.643Z,69.10
2019-01-20T05:15:23.804Z,67.83
2019-01-20T05:17:52.114Z,72.73
2019-01-20T05:20:20.340Z,66.60
2019-01-20T05:22:48.737Z,69.47
2019-01-20T05:25:17.026Z,69.67
2019-01-20T05:27:45.408Z,69.47
2019-01-20T05:30:28.021Z,83.07
2019-01-20T05:32:56.140Z,68.07
2019-01-20T05:35:24.649Z,76.60
2019-01-20T05:37:52.973Z,76.37
2019-01-20T05:40:21.680Z,65.53
2019-01-20T05:42:49.770Z,67.43
2019-01-20T05:45:22.000Z,74.20
2019-01-20T05:47:50.170Z,69.80
2019-01-20T05:50:18.771Z,70.87
2019-01-20T05:52:46.931Z,71.57
2019-01-20T05:55:15.373Z,70.13
2019-01-20T05:57:43.601Z,77.30
2019-01-20T06:00:22.138Z,76.40
2019-01-20T06:02:50.365Z,73.23
2019-01-20T06:05:19.771Z,75.40
2019-01-20T06:07:47.965Z,70.13
2019-01-20T06:10:16.322Z,75.50
2019-01-20T06:12:44.520Z,71.87
2019-01-20T06:15:15.805Z,76.47
2019-01-20T06:17:44.008Z,71.13
2019-01-20T06:20:12.950Z,68.63
2019-01-20T06:22:41.160Z,69.10
2019-01-20T06:25:09.283Z,73.27
2019-01-20T06:27:37.656Z,70.53
2019-01-20T06:30:12.795Z,69.37
2019-01-20T06:32:41.030Z,68.93
2019-01-20T06:35:09.165Z,70.20
2019-01-20T06:37:37.183Z,67.77
2019-01-20T06:40:06.202Z,73.83
2019-01-20T06:42:34.529Z,71.83
2019-01-20T06:45:03.476Z,69.93
2019-01-20T06:47:31.545Z,74.83
2019-01-20T06:49:59.594Z,70.07
2019-01-20T06:52:27.613Z,65.50
2019-01-20T06:54:55.767Z,65.97
2019-01-20T06:57:24.015Z,64.23
2019-01-20T06:59:52.086Z,68.67
2019-01-20T07:02:20.292Z,75.30
2019-01-20T07:04:48.536Z,71.03
2019-01-20T07:07:16.835Z,78.00
2019-01-20T07:09:45.223Z,65.17
2019-01-20T07:12:13.420Z,72.50
2019-01-20T07:14:41.509Z,63.47
2019-01-20T07:17:09.580Z,61.53
2019-01-20T07:19:38.015Z,67.87
2019-01-20T07:22:06.224Z,68.00
2019-01-20T07:24:34.407Z,71.43
2019-01-20T07:27:02.477Z,68.17
2019-01-20T07:29:30.718Z,64.43
2019-01-20T07:31:58.832Z,67.37
2019-01-20T07:34:27.538Z,71.47
2019-01-20T07:36:55.880Z,75.47
2019-01-20T07:39:24.018Z,73.10
2019-01-20T07:41:52.197Z,71.07
2019-01-20T07:44:20.335Z,73.87
2019-01-20T07:46:48.548Z,73.97
2019-01-20T07:49:16.996Z,71.67
2019-01-20T07:51:45.160Z,70.97
2019-01-20T07:54:13.407Z,71.30
2019-01-20T07:56:41.801Z,66.73
2019-01-20T07:59:09.944Z,67.13
2019-01-20T08:01:38.147Z,65.43
2019-01-20T08:04:06.483Z,65.83
2019-01-20T08:06:34.557Z,61.50
2019-01-20T08:09:05.903Z,61.33
2019-01-20T08:11:33.988Z,60.17
2019-01-20T08:14:02.314Z,66.97
2019-01-20T08:16:30.609Z,65.43
2019-01-20T08:18:58.842Z,59.87
2019-01-20T08:21:27.075Z,64.20
2019-01-20T08:23:55.186Z,61.90
2019-01-20T08:26:23.532Z,64.33
2019-01-20T08:28:51.791Z,65.17
2019-01-20T08:31:20.031Z,62.67
2019-01-20T08:33:48.312Z,58.50
2019-01-20T08:36:16.403Z,58.33
2019-01-20T08:38:44.716Z,60.70
2019-01-20T08:41:12.923Z,61.17
2019-01-20T08:43:41.116Z,60.63
2019-01-20T08:46:39.175Z,62.00
2019-01-20T08:49:07.481Z,60.57
2019-01-20T08:51:38.566Z,58.17
2019-01-20T08:54:06.680Z,59.80
2019-01-20T08:56:35.024Z,58.20
2019-01-20T08:59:03.249Z,57.97
2019-01-20T09:01:32.897Z,56.70
2019-01-20T09:04:01.192Z,56.03
2019-01-20T09:06:30.024Z,58.37
2019-01-20T09:08:58.454Z,60.47
2019-01-20T09:11:26.753Z,59.33
2019-01-20T09:13:54.990Z,52.43
2019-01-20T09:16:23.208Z,54.23
2019-01-20T09:18:51.350Z,52.73
2019-01-20T09:21:19.632Z,57.97
2019-01-20T09:23:47.749Z,60.93
2019-01-20T09:26:15.805Z,59.83
2019-01-20T09:28:43.906Z,56.70
2019-01-20T09:31:12.325Z,54.30
2019-01-20T09:33:40.975Z,58.63
2019-01-20T09:36:09.113Z,58.50
2019-01-20T09:38:37.284Z,51.57
2019-01-20T09:41:05.428Z,53.63
2019-01-20T09:43:33.665Z,46.25
2019-01-20T09:46:03.029Z,45.77
2019-01-20T09:48:31.159Z,49.20
2019-01-20T09:50:59.253Z,45.10
2019-01-20T09:53:27.332Z,50.27
2019-01-20T09:55:55.557Z,42.97
2019-01-20T09:58:23.991Z,44.27
2019-01-20T10:00:52.363Z,40.87
2019-01-20T10:03:20.549Z,45.40
2019-01-20T10:05:49.042Z,50.37
2019-01-20T10:08:17.484Z,51.77
2019-01-20T10:10:46.938Z,54.70
2019-01-20T10:13:15.372Z,49.93
2019-01-20T10:15:44.690Z,50.30
2019-01-20T10:18:13.147Z,49.83
2019-01-20T10:20:41.766Z,51.90
2019-01-20T10:23:10.599Z,51.47
2019-01-20T10:25:38.907Z,55.77
2019-01-20T10:28:10.325Z,52.90
2019-01-20T10:30:38.886Z,53.60
2019-01-20T10:33:07.088Z,55.47
2019-01-20T10:35:51.358Z,54.87
2019-01-20T10:38:19.456Z,59.57
2019-01-20T10:40:47.914Z,58.63
2019-01-20T10:43:16.150Z,57.27
2019-01-20T10:45:44.491Z,54.90
2019-01-20T10:48:12.793Z,52.57
2019-01-20T10:50:41.349Z,54.87
2019-01-20T10:53:10.386Z,53.37
2019-01-20T10:55:39.415Z,51.13
2019-01-20T10:58:08.011Z,51.23
2019-01-20T11:00:39.049Z,52.10
2019-01-20T11:03:08.494Z,48.83
2019-01-20T11:05:37.238Z,50.50
2019-01-20T11:08:05.623Z,53.37
2019-01-20T11:10:34.248Z,49.90
2019-01-20T11:13:03.042Z,54.13
2019-01-20T11:15:31.304Z,53.27
2019-01-20T11:17:59.438Z,53.33
2019-01-20T11:20:27.860Z,49.00
2019-01-20T11:22:57.390Z,50.23
2019-01-20T11:25:29.509Z,52.40
2019-01-20T11:27:57.879Z,50.37
2019-01-20T11:30:26.055Z,52.77
2019-01-20T11:32:54.169Z,55.13
2019-01-20T11:35:22.838Z,53.53
2019-01-20T11:37:51.426Z,50.67
2019-01-20T11:40:19.691Z,53.33
2019-01-20T11:42:48.245Z,53.77
2019-01-20T11:45:25.939Z,50.70
2019-01-20T11:50:42.118Z,53.07
2019-01-20T11:53:10.180Z,50.13
2019-01-20T11:55:38.613Z,48.70
2019-01-20T11:58:07.076Z,49.30
2019-01-20T12:00:40.735Z,48.20
2019-01-20T12:03:08.960Z,49.70
2019-01-20T12:05:40.828Z,54.63
2019-01-20T12:08:09.379Z,50.50
2019-01-20T12:10:37.886Z,52.30
2019-01-20T12:13:07.853Z,50.37
2019-01-20T12:15:36.350Z,47.57
2019-01-20T12:18:05.974Z,47.60
2019-01-20T12:20:34.263Z,44.30
2019-01-20T12:23:02.306Z,46.73
2019-01-20T12:25:30.369Z,48.53
2019-01-20T12:27:58.695Z,49.20
2019-01-20T12:30:29.698Z,47.27
2019-01-20T12:32:59.292Z,45.93
2019-01-20T12:35:27.462Z,45.13
2019-01-20T12:37:55.636Z,46.57
2019-01-20T12:40:54.693Z,45.83
2019-01-20T12:43:23.985Z,42.40
2019-01-20T12:45:53.198Z,44.57
2019-01-20T12:48:21.260Z,47.40
2019-01-20T12:50:49.677Z,49.60
2019-01-20T12:53:17.824Z,44.60
2019-01-20T12:55:45.982Z,46.77
2019-01-20T12:58:14.628Z,43.57
2019-01-20T13:00:43.003Z,49.10
2019-01-20T13:03:11.128Z,45.53
2019-01-20T13:05:39.297Z,50.57
2019-01-20T13:08:07.981Z,45.40
2019-01-20T13:10:36.288Z,42.63
2019-01-20T13:13:05.214Z,42.07
2019-01-20T13:15:33.551Z,44.77
2019-01-20T13:18:01.808Z,48.77
2019-01-20T13:20:30.018Z,43.70
2019-01-20T13:22:58.194Z,50.10
2019-01-20T13:25:29.482Z,42.40
2019-01-20T13:27:57.654Z,41.97
2019-01-20T13:30:28.044Z,45.47
2019-01-20T13:32:56.129Z,46.30
2019-01-20T13:35:26.198Z,48.93
2019-01-20T13:38:16.283Z,45.83
2019-01-20T13:40:53.383Z,49.17
2019-01-20T13:43:21.517Z,50.97
2019-01-20T13:45:49.711Z,55.90
2019-01-20T13:48:17.859Z,57.10
2019-01-20T13:50:46.370Z,65.13
2019-01-20T13:53:14.957Z,66.87
2019-01-20T13:55:43.138Z,67.90
2019-01-20T13:58:11.364Z,65.93
2019-01-20T14:00:39.549Z,65.30
2019-01-20T14:03:07.860Z,62.93
2019-01-20T14:05:35.955Z,71.60
2019-01-20T14:08:04.037Z,70.77
2019-01-20T14:10:32.159Z,71.17
2019-01-20T14:13:00.424Z,73.23
2019-01-20T14:15:28.666Z,73.20
2019-01-20T14:17:56.725Z,73.93
2019-01-20T14:20:24.930Z,71.07
2019-01-20T14:22:53.158Z,69.93
2019-01-20T14:25:23.179Z,74.83
2019-01-20T14:27:51.542Z,74.20
2019-01-20T14:30:23.577Z,72.67
2019-01-20T14:32:51.783Z,70.03
2019-01-20T14:35:20.142Z,69.87
2019-01-20T14:37:48.243Z,71.50
2019-01-20T14:40:17.142Z,77.60
2019-01-20T14:42:45.751Z,80.80
2019-01-20T14:45:14.706Z,80.57
2019-01-20T14:47:43.012Z,80.63
2019-01-20T14:50:16.823Z,80.73
2019-01-20T14:52:45.090Z,73.07
2019-01-20T14:55:13.590Z,78.50
2019-01-20T14:57:41.843Z,83.00
2019-01-20T15:00:18.604Z,76.77
2019-01-20T15:02:46.796Z,74.03
2019-01-20T15:05:16.509Z,69.53
2019-01-20T15:07:45.394Z,80.03
2019-01-20T15:10:14.881Z,70.53
2019-01-20T15:12:43.426Z,63.40
2019-01-20T15:15:16.776Z,67.73
2019-01-20T15:17:45.272Z,67.37
2019-01-20T15:20:14.533Z,67.27
2019-01-20T15:22:42.800Z,65.73
2019-01-20T15:25:12.862Z,64.97
2019-01-20T15:27:43.276Z,64.60
2019-01-20T15:30:19.876Z,59.67
2019-01-20T15:32:49.068Z,66.70
2019-01-20T15:35:17.595Z,64.00
2019-01-20T15:37:46.483Z,61.43
2019-01-20T15:40:17.871Z,61.00
2019-01-20T15:42:46.560Z,62.33
2019-01-20T15:45:17.687Z,66.07
2019-01-20T15:47:46.219Z,65.07
2019-01-20T15:50:20.903Z,70.27
2019-01-20T15:52:49.759Z,69.50
2019-01-20T15:55:17.933Z,70.53
2019-01-20T15:57:46.551Z,73.13
2019-01-20T16:00:18.592Z,75.83
2019-01-20T16:02:47.249Z,74.27
2019-01-20T16:05:17.334Z,72.53
2019-01-20T16:07:45.550Z,76.50
2019-01-20T16:10:15.138Z,79.50
2019-01-20T16:12:43.885Z,77.80
2019-01-20T16:15:25.005Z,78.80
2019-01-20T16:17:55.092Z,79.00
2019-01-20T16:20:24.344Z,76.37
2019-01-20T16:22:52.633Z,74.77
2019-01-20T16:25:27.933Z,78.77
2019-01-20T16:27:56.044Z,89.13
2019-01-20T16:30:27.900Z,83.20
2019-01-20T16:32:55.971Z,83.67
2019-01-20T16:35:25.237Z,81.47
2019-01-20T16:37:53.804Z,81.43
2019-01-20T16:40:23.079Z,94.67
2019-01-20T16:42:51.645Z,96.23
2019-01-20T16:45:31.926Z,93.17
2019-01-20T16:47:57.303Z,86.93
2019-01-20T16:50:25.917Z,84.60
2019-01-20T16:52:54.991Z,92.27
2019-01-20T16:55:23.636Z,89.33
2019-01-20T16:57:52.190Z,92.30
2019-01-20T17:00:24.361Z,99.63
2019-01-20T17:02:53.361Z,92.03
2019-01-20T17:05:26.554Z,99.97
2019-01-20T17:07:52.504Z,103.53
2019-01-20T17:10:24.732Z,91.50
2019-01-20T17:12:53.515Z,100.37
2019-01-20T17:15:29.234Z,92.43
2019-01-20T17:17:57.618Z,94.87
2019-01-20T17:20:26.037Z,87.77
2019-01-20T17:22:54.615Z,88.13
2019-01-20T17:25:24.225Z,89.10
2019-01-20T17:27:53.690Z,96.53
2019-01-20T17:30:25.749Z,81.33
2019-01-20T17:32:55.713Z,86.27
2019-01-20T17:35:23.966Z,81.90
2019-01-20T17:37:52.341Z,87.17
2019-01-20T17:40:23.863Z,91.57
2019-01-20T17:42:52.317Z,93.67
2019-01-20T17:45:24.301Z,89.70
2019-01-20T17:47:53.038Z,95.57
2019-01-20T17:50:25.002Z,92.47
2019-01-20T17:52:53.893Z,96.93
2019-01-20T17:55:22.143Z,98.03
2019-01-20T17:57:50.447Z,97.80
2019-01-20T18:00:23.493Z,95.00
2019-01-20T18:02:52.297Z,93.07
2019-01-20T18:05:22.966Z,94.77
2019-01-20T18:07:51.288Z,93.93
2019-01-20T18:10:19.529Z,97.23
2019-01-20T18:12:47.773Z,89.23
2019-01-20T18:15:18.099Z,92.13
2019-01-20T18:17:46.609Z,98.03
2019-01-20T18:20:21.083Z,96.07
2019-01-20T18:22:49.426Z,92.17
2019-01-20T18:25:18.371Z,91.17
2019-01-20T18:27:46.723Z,89.83
2019-01-20T18:30:19.123Z,90.63
2019-01-20T18:32:47.178Z,89.37
2019-01-20T18:35:15.337Z,91.17
2019-01-20T18:37:43.506Z,87.90
2019-01-20T18:40:14.969Z,89.23
2019-01-20T18:42:43.156Z,97.90
2019-01-20T18:45:14.946Z,86.37
2019-01-20T18:47:43.047Z,90.23
2019-01-20T18:50:15.051Z,93.80
2019-01-20T18:52:43.225Z,90.47
2019-01-20T18:55:12.362Z,95.37
2019-01-20T18:57:40.601Z,93.43
2019-01-20T19:00:19.911Z,94.73
2019-01-20T19:02:47.972Z,92.53
2019-01-20T19:05:16.959Z,92.33
2019-01-20T19:07:45.145Z,86.67
2019-01-20T19:10:14.908Z,95.03
2019-01-20T19:12:43.438Z,92.43
2019-01-20T19:15:15.111Z,90.77
2019-01-20T19:17:43.429Z,98.07
2019-01-20T19:20:20.762Z,88.37
2019-01-20T19:22:51.739Z,86.40
2019-01-20T19:25:21.347Z,89.27
2019-01-20T19:27:49.610Z,86.77
2019-01-20T19:30:30.347Z,95.23
2019-01-20T19:32:58.968Z,90.17
2019-01-20T19:35:28.357Z,91.67
2019-01-20T19:37:56.743Z,90.70
2019-01-20T19:40:25.107Z,94.83
2019-01-20T19:42:53.198Z,99.43
2019-01-20T19:45:22.016Z,90.00
2019-01-20T19:47:50.146Z,106.23
2019-01-20T19:50:18.895Z,96.60
2019-01-20T19:52:47.127Z,90.60
2019-01-20T19:55:19.234Z,92.93
2019-01-20T19:57:47.792Z,83.23
2019-01-20T20:00:19.420Z,83.10
2019-01-20T20:02:47.767Z,90.93
2019-01-20T20:05:17.698Z,94.37
2019-01-20T20:07:46.413Z,82.00
2019-01-20T20:10:17.394Z,85.80
2019-01-20T20:12:46.039Z,84.57
2019-01-20T20:15:17.588Z,92.23
2019-01-20T20:17:45.839Z,88.67
2019-01-20T20:20:15.349Z,88.33
2019-01-20T20:22:43.890Z,84.73
2019-01-20T20:25:14.014Z,83.20
2019-01-20T20:27:42.310Z,89.10
2019-01-20T20:30:15.165Z,93.83
2019-01-20T20:32:43.629Z,87.97
2019-01-20T20:35:12.163Z,89.93
2019-01-20T20:37:40.439Z,96.47
2019-01-20T20:40:11.061Z,96.97
2019-01-20T20:42:39.336Z,91.93
2019-01-20T20:45:11.189Z,95.47
2019-01-20T20:47:39.275Z,94.73
2019-01-20T20:50:10.071Z,94.17
2019-01-20T20:52:38.183Z,90.47
2019-01-20T20:55:07.425Z,98.63
2019-01-20T20:57:35.557Z,87.77
2019-01-20T21:00:09.528Z,99.10
2019-01-20T21:02:37.664Z,90.70
2019-01-20T21:05:06.434Z,94.63
2019-01-20T21:07:34.595Z,96.87
2019-01-20T21:10:03.515Z,99.50
2019-01-20T21:12:31.819Z,91.60
2019-01-20T21:15:03.368Z,97.90
2019-01-20T21:17:32.038Z,97.10
2019-01-20T21:20:00.214Z,94.53
2019-01-20T21:22:28.489Z,100.83
2019-01-20T21:24:57.556Z,104.87
2019-01-20T21:27:25.869Z,105.13
2019-01-20T21:29:54.060Z,109.63
2019-01-20T21:32:22.194Z,110.83
2019-01-20T21:34:50.301Z,113.27
2019-01-20T21:37:18.692Z,114.13
2019-01-20T21:39:47.249Z,102.70
2019-01-20T21:42:15.400Z,105.47
2019-01-20T21:44:43.595Z,113.30
2019-01-20T21:47:11.846Z,112.33
2019-01-20T21:49:39.918Z,117.60
2019-01-20T21:52:08.017Z,115.60
2019-01-20T21:54:36.259Z,107.67
2019-01-20T21:57:04.322Z,100.57
2019-01-20T21:59:32.432Z,110.93
2019-01-20T22:02:00.470Z,137.33
2019-01-20T22:04:28.670Z,106.33
2019-01-20T22:06:59.599Z,115.73
2019-01-20T22:09:27.775Z,93.43
2019-01-20T22:11:56.047Z,84.57
2019-01-20T22:14:24.181Z,82.23
2019-01-20T22:16:52.875Z,83.67
2019-01-20T22:19:21.435Z,85.33
2019-01-20T22:21:49.639Z,91.27
2019-01-20T22:24:17.856Z,92.40
2019-01-20T22:26:45.918Z,100.30
2019-01-20T22:29:14.193Z,94.97
2019-01-20T22:31:42.571Z,88.97
2019-01-20T22:34:10.813Z,91.20
2019-01-20T22:36:38.972Z,97.23
2019-01-20T22:39:07.913Z,97.20
2019-01-20T22:41:36.339Z,101.27
2019-01-20T22:44:04.562Z,103.57
2019-01-20T22:46:32.701Z,121.17
2019-01-20T22:49:01.129Z,99.57
2019-01-20T22:51:29.225Z,103.63
2019-01-20T22:53:57.361Z,99.23
2019-01-20T22:56:25.617Z,97.27
2019-01-20T22:58:53.754Z,100.17
2019-01-20T23:01:23.074Z,98.57
2019-01-20T23:03:51.243Z,101.27
2019-01-20T23:06:19.465Z,114.67
2019-01-20T23:08:47.605Z,107.50
2019-01-20T23:11:15.970Z,110.30
2019-01-20T23:13:44.349Z,105.53
2019-01-20T23:16:12.597Z,103.37
2019-01-20T23:18:40.902Z,103.10
2019-01-20T23:21:09.002Z,98.00
2019-01-20T23:23:37.295Z,101.40
2019-01-20T23:26:05.327Z,99.07
2019-01-20T23:28:33.713Z,97.83
2019-01-20T23:31:01.909Z,94.00
2019-01-20T23:33:30.050Z,93.53
2019-01-20T23:35:58.118Z,101.80
2019-01-20T23:38:26.289Z,101.33
2019-01-20T23:40:54.365Z,96.13
2019-01-20T23:43:22.645Z,108.50
2019-01-20T23:45:50.821Z,103.43
2019-01-20T23:48:18.947Z,94.27
2019-01-20T23:50:47.040Z,96.10
2019-01-20T23:53:15.218Z,100.47
2019-01-20T23:55:43.497Z,102.77
2019-01-20T23:58:11.746Z,108.27
